createdAt,value
2023-05-05T00:00:11.065Z,100643.91
2023-05-05T00:02:40.751Z,100637.72
2023-05-05T00:05:10.205Z,100636.09
2023-05-05T00:07:37.688Z,100637.72
2023-05-05T00:10:11.010Z,100629.94
2023-05-05T00:12:44.383Z,100626.44
2023-05-05T00:15:19.929Z,100622.16
2023-05-05T00:17:46.952Z,100635.88
2023-05-05T00:20:16.969Z,100631.31
2023-05-05T00:22:46.668Z,100623.25
2023-05-05T00:25:14.293Z,100628.31
2023-05-05T00:27:46.376Z,100632.09
2023-05-05T00:30:13.278Z,100627.28
2023-05-05T00:32:40.960Z,100623.50
2023-05-05T00:35:15.638Z,100633.44
2023-05-05T00:37:47.224Z,100637.72
2023-05-05T00:40:16.859Z,100637.22
2023-05-05T00:42:50.642Z,100628.06
2023-05-05T00:45:21.190Z,100626.47
2023-05-05T00:47:57.258Z,100629.16
2023-05-05T00:50:29.076Z,100629.16
2023-05-05T00:53:04.395Z,100628.59
2023-05-05T00:55:38.364Z,100624.88
2023-05-05T00:58:12.491Z,100622.19
2023-05-05T01:00:44.365Z,100620.56
2023-05-05T01:03:11.559Z,100616.25
2023-05-05T01:06:04.834Z,100612.50
2023-05-05T01:08:45.971Z,100606.31
2023-05-05T01:11:20.056Z,100600.16
2023-05-05T01:13:50.041Z,100609.28
2023-05-05T01:16:29.804Z,100593.16
2023-05-05T01:18:59.834Z,100598.53
2023-05-05T01:21:31.508Z,100596.94
2023-05-05T01:24:10.940Z,100599.09
2023-05-05T01:26:47.427Z,100602.56
2023-05-05T01:29:33.186Z,100596.13
2023-05-05T01:32:07.445Z,100600.69
2023-05-05T01:34:48.418Z,100599.37
2023-05-05T01:37:23.335Z,100597.50
2023-05-05T01:39:58.125Z,100595.31
2023-05-05T01:42:29.555Z,100598.28
2023-05-05T01:45:01.817Z,100590.50
2023-05-05T01:47:34.708Z,100583.50
2023-05-05T01:50:02.280Z,100581.62
2023-05-05T01:52:33.974Z,100578.12
2023-05-05T01:55:06.667Z,100576.53
2023-05-05T01:57:34.725Z,100572.78
2023-05-05T02:00:24.899Z,100583.50
2023-05-05T02:02:59.089Z,100582.72
2023-05-05T02:05:30.956Z,100588.09
2023-05-05T02:08:07.564Z,100581.91
2023-05-05T02:10:35.199Z,100590.50
2023-05-05T02:13:05.548Z,100591.06
2023-05-05T02:15:35.953Z,100594.78
2023-05-05T02:18:06.080Z,100591.06
2023-05-05T02:20:33.741Z,100584.06
2023-05-05T02:23:00.932Z,100584.06
2023-05-05T02:25:33.398Z,100590.25
2023-05-05T02:28:00.902Z,100595.63
2023-05-05T02:30:33.209Z,100587.81
2023-05-05T02:33:13.313Z,100590.50
2023-05-05T02:35:40.977Z,100596.97
2023-05-05T02:38:13.478Z,100591.59
2023-05-05T02:40:42.684Z,100580.84
2023-05-05T02:43:10.968Z,100587.81
2023-05-05T02:45:38.218Z,100593.19
2023-05-05T02:48:11.558Z,100588.09
2023-05-05T02:50:44.472Z,100586.22
2023-05-05T02:53:14.413Z,100586.22
2023-05-05T02:55:50.610Z,100590.00
2023-05-05T02:58:24.817Z,100587.56
2023-05-05T03:01:03.774Z,100596.72
2023-05-05T03:03:46.972Z,100591.34
2023-05-05T03:06:23.168Z,100586.75
2023-05-05T03:08:56.674Z,100581.41
2023-05-05T03:11:26.601Z,100574.41
2023-05-05T03:14:01.607Z,100570.66
2023-05-05T03:16:32.600Z,100573.34
2023-05-05T03:19:15.639Z,100567.44
2023-05-05T03:21:45.770Z,100571.19
2023-05-05T03:24:22.278Z,100569.06
2023-05-05T03:26:52.813Z,100576.56
2023-05-05T03:29:23.014Z,100571.19
2023-05-05T03:31:53.478Z,100583.56
2023-05-05T03:34:22.706Z,100573.88
2023-05-05T03:36:52.574Z,100570.38
2023-05-05T03:39:28.335Z,100575.50
2023-05-05T03:41:55.290Z,100570.69
2023-05-05T03:44:25.605Z,100568.00
2023-05-05T03:46:52.505Z,100566.37
2023-05-05T03:49:23.873Z,100572.81
2023-05-05T03:51:55.300Z,100569.34
2023-05-05T03:54:22.417Z,100570.13
2023-05-05T03:56:52.748Z,100570.94
2023-05-05T03:59:25.578Z,100570.69
2023-05-05T04:02:03.144Z,100563.16
2023-05-05T04:04:30.063Z,100572.31
2023-05-05T04:07:00.256Z,100572.31
2023-05-05T04:09:27.587Z,100569.63
2023-05-05T04:11:54.888Z,100572.03
2023-05-05T04:14:22.162Z,100573.38
2023-05-05T04:16:54.375Z,100574.94
2023-05-05T04:19:23.123Z,100573.31
2023-05-05T04:21:49.830Z,100579.78
2023-05-05T04:24:19.580Z,100581.38
2023-05-05T04:26:46.289Z,100579.19
2023-05-05T04:29:15.606Z,100580.53
2023-05-05T04:31:42.615Z,100579.44
2023-05-05T04:34:10.425Z,100579.19
2023-05-05T04:36:37.419Z,100574.62
2023-05-05T04:39:04.451Z,100580.81
2023-05-05T04:41:31.559Z,100583.47
2023-05-05T04:44:01.434Z,100577.31
2023-05-05T04:46:33.922Z,100581.88
2023-05-05T04:49:02.469Z,100587.81
2023-05-05T04:51:34.505Z,100591.56
2023-05-05T04:54:04.926Z,100601.78
2023-05-05T04:56:33.091Z,100596.69
2023-05-05T04:59:02.835Z,100605.00
2023-05-05T05:01:37.756Z,100605.53
2023-05-05T05:04:09.971Z,100598.56
2023-05-05T05:06:40.559Z,100605.03
2023-05-05T05:09:13.273Z,100609.31
2023-05-05T05:11:43.453Z,100607.72
2023-05-05T05:14:12.744Z,100606.37
2023-05-05T05:16:42.983Z,100604.47
2023-05-05T05:19:10.189Z,100595.31
2023-05-05T05:21:37.496Z,100599.87
2023-05-05T05:24:10.249Z,100610.09
2023-05-05T05:26:43.175Z,100619.50
2023-05-05T05:29:23.289Z,100615.72
2023-05-05T05:31:53.571Z,100625.62
2023-05-05T05:34:23.617Z,100614.59
2023-05-05T05:36:57.937Z,100622.66
2023-05-05T05:39:27.758Z,100625.34
2023-05-05T05:42:05.607Z,100627.56
2023-05-05T05:44:35.403Z,100628.94
2023-05-05T05:47:06.697Z,100623.56
2023-05-05T05:49:41.879Z,100626.00
2023-05-05T05:52:15.142Z,100623.87
2023-05-05T05:54:45.164Z,100630.34
2023-05-05T05:57:17.117Z,100622.28
2023-05-05T05:59:55.344Z,100620.69
2023-05-05T06:02:25.821Z,100629.28
2023-05-05T06:04:58.927Z,100627.41
2023-05-05T06:07:29.143Z,100632.50
2023-05-05T06:10:14.418Z,100633.00
2023-05-05T06:12:54.219Z,100628.16
2023-05-05T06:15:21.199Z,100620.66
2023-05-05T06:17:52.622Z,100624.69
2023-05-05T06:20:28.311Z,100627.13
2023-05-05T06:22:58.379Z,100634.66
2023-05-05T06:25:29.541Z,100631.69
2023-05-05T06:27:59.338Z,100634.91
2023-05-05T06:30:26.232Z,100638.13
2023-05-05T06:32:56.059Z,100637.31
2023-05-05T06:35:34.396Z,100634.63
2023-05-05T06:38:04.514Z,100632.50
2023-05-05T06:40:33.018Z,100629.53
2023-05-05T06:42:59.725Z,100632.22
2023-05-05T06:45:26.590Z,100636.22
2023-05-05T06:47:57.406Z,100629.53
2023-05-05T06:50:24.779Z,100627.13
2023-05-05T06:52:56.539Z,100639.47
2023-05-05T06:55:26.653Z,100633.56
2023-05-05T06:57:58.551Z,100626.00
2023-05-05T07:00:25.441Z,100631.38
2023-05-05T07:02:52.262Z,100621.19
2023-05-05T07:05:24.915Z,100621.72
2023-05-05T07:08:05.595Z,100620.66
2023-05-05T07:10:35.206Z,100621.44
2023-05-05T07:13:05.213Z,100624.13
2023-05-05T07:15:37.888Z,100630.06
2023-05-05T07:18:04.888Z,100620.13
2023-05-05T07:20:32.539Z,100622.28
2023-05-05T07:23:04.885Z,100615.28
2023-05-05T07:25:32.448Z,100620.91
2023-05-05T07:28:08.195Z,100617.97
2023-05-05T07:30:37.030Z,100616.06
2023-05-05T07:33:09.623Z,100613.13
2023-05-05T07:35:41.783Z,100613.66
2023-05-05T07:38:11.684Z,100606.69
2023-05-05T07:40:41.604Z,100608.03
2023-05-05T07:43:11.720Z,100610.16
2023-05-05T07:45:41.450Z,100607.47
2023-05-05T07:48:11.854Z,100609.06
2023-05-05T07:50:41.083Z,100602.63
2023-05-05T07:53:14.743Z,100605.84
2023-05-05T07:55:45.698Z,100600.47
2023-05-05T07:58:12.596Z,100603.69
2023-05-05T08:00:41.179Z,100593.75
2023-05-05T08:03:11.663Z,100599.09
2023-05-05T08:05:38.975Z,100592.94
2023-05-05T08:08:06.153Z,100596.97
2023-05-05T08:10:36.458Z,100595.09
2023-05-05T08:13:06.356Z,100594.78
2023-05-05T08:15:35.904Z,100588.91
2023-05-05T08:18:03.653Z,100588.38
2023-05-05T08:20:30.878Z,100591.34
2023-05-05T08:23:00.710Z,100588.12
2023-05-05T08:25:30.772Z,100587.88
2023-05-05T08:28:06.917Z,100585.19
2023-05-05T08:30:42.829Z,100595.09
2023-05-05T08:33:09.651Z,100595.38
2023-05-05T08:35:38.989Z,100596.72
2023-05-05T08:38:09.359Z,100597.53
2023-05-05T08:40:41.063Z,100603.16
2023-05-05T08:43:08.105Z,100589.47
2023-05-05T08:45:38.015Z,100581.94
2023-05-05T08:48:08.057Z,100587.88
2023-05-05T08:50:37.295Z,100584.09
2023-05-05T08:53:12.041Z,100584.09
2023-05-05T08:55:50.649Z,100585.72
2023-05-05T08:58:30.670Z,100593.25
2023-05-05T09:00:58.077Z,100586.50
2023-05-05T09:03:27.859Z,100590.28
2023-05-05T09:05:54.779Z,100587.31
2023-05-05T09:08:22.388Z,100591.06
2023-05-05T09:10:51.371Z,100588.94
2023-05-05T09:13:24.764Z,100586.25
2023-05-05T09:15:51.519Z,100585.16
2023-05-05T09:18:24.452Z,100578.19
2023-05-05T09:20:51.695Z,100580.88
2023-05-05T09:23:20.284Z,100571.19
2023-05-05T09:26:02.204Z,100577.41
2023-05-05T09:28:30.698Z,100562.87
2023-05-05T09:31:17.588Z,100559.41
2023-05-05T09:33:44.470Z,100559.09
2023-05-05T09:36:17.900Z,100566.88
2023-05-05T09:39:05.513Z,100565.28
2023-05-05T09:41:41.420Z,100564.47
2023-05-05T09:44:09.068Z,100567.97
2023-05-05T09:46:38.798Z,100563.69
2023-05-05T09:49:19.771Z,100560.19
2023-05-05T09:51:49.758Z,100558.31
2023-05-05T09:54:42.683Z,100559.09
2023-05-05T09:57:09.778Z,100561.00
2023-05-05T09:59:42.552Z,100563.69
2023-05-05T10:02:18.757Z,100561.00
2023-05-05T10:04:45.811Z,100558.31
2023-05-05T10:07:23.752Z,100548.38
2023-05-05T10:09:55.180Z,100556.13
2023-05-05T10:12:22.577Z,100556.13
2023-05-05T10:14:50.754Z,100547.03
2023-05-05T10:17:20.697Z,100555.09
2023-05-05T10:19:52.525Z,100552.41
2023-05-05T10:22:23.068Z,100552.41
2023-05-05T10:24:55.971Z,100538.16
2023-05-05T10:27:27.339Z,100540.56
2023-05-05T10:29:56.724Z,100543.75
2023-05-05T10:35:06.305Z,100548.59
2023-05-05T10:37:37.044Z,100542.16
2023-05-05T10:40:10.004Z,100543.75
2023-05-05T10:42:39.047Z,100542.16
2023-05-05T10:45:09.321Z,100538.09
2023-05-05T10:47:41.885Z,100535.41
2023-05-05T10:50:18.973Z,100529.25
2023-05-05T10:52:47.339Z,100523.06
2023-05-05T10:55:22.925Z,100520.09
2023-05-05T10:57:53.187Z,100522.78
2023-05-05T11:00:37.981Z,100508.31
2023-05-05T11:03:17.223Z,100508.31
2023-05-05T11:06:02.490Z,100495.66
2023-05-05T11:08:30.408Z,100499.16
2023-05-05T11:11:00.592Z,100500.25
2023-05-05T11:13:30.488Z,100500.25
2023-05-05T11:15:58.405Z,100498.63
2023-05-05T11:18:30.115Z,100493.25
2023-05-05T11:21:07.279Z,100495.41
2023-05-05T11:23:33.962Z,100493.81
2023-05-05T11:26:06.720Z,100493.25
2023-05-05T11:28:33.596Z,100492.69
2023-05-05T11:31:03.186Z,100481.16
2023-05-05T11:33:39.036Z,100487.31
2023-05-05T11:36:07.018Z,100484.63
2023-05-05T11:38:46.051Z,100486.53
2023-05-05T11:41:38.458Z,100481.94
2023-05-05T11:44:11.148Z,100472.81
2023-05-05T11:46:42.973Z,100475.50
2023-05-05T11:49:10.869Z,100472.00
2023-05-05T11:51:43.558Z,100468.22
2023-05-05T11:54:14.489Z,100469.06
2023-05-05T11:56:50.684Z,100467.97
2023-05-05T11:59:20.974Z,100468.22
2023-05-05T12:01:48.002Z,100467.44
2023-05-05T12:04:19.044Z,100464.75
2023-05-05T12:06:50.178Z,100460.47
2023-05-05T12:09:20.966Z,100461.25
2023-05-05T12:12:00.014Z,100462.06
2023-05-05T12:14:32.973Z,100457.47
2023-05-05T12:17:00.728Z,100462.06
2023-05-05T12:19:30.553Z,100467.44
2023-05-05T12:22:00.170Z,100462.06
2023-05-05T12:24:33.528Z,100456.69
2023-05-05T12:27:09.865Z,100454.78
2023-05-05T12:29:39.708Z,100456.69
2023-05-05T12:32:09.266Z,100448.91
2023-05-05T12:34:36.034Z,100444.34
2023-05-05T12:37:05.829Z,100445.12
2023-05-05T12:39:38.892Z,100450.50
2023-05-05T12:42:05.953Z,100440.56
2023-05-05T12:44:36.728Z,100445.94
2023-05-05T12:47:03.936Z,100442.19
2023-05-05T12:49:51.695Z,100438.41
2023-05-05T12:52:22.022Z,100443.78
2023-05-05T12:54:59.153Z,100431.97
2023-05-05T12:57:26.774Z,100433.03
2023-05-05T12:59:53.806Z,100431.16
2023-05-05T13:02:33.602Z,100430.88
2023-05-05T13:05:03.272Z,100419.31
2023-05-05T13:07:30.445Z,100422.81
2023-05-05T13:10:07.327Z,100420.13
2023-05-05T13:12:37.046Z,100420.94
2023-05-05T13:15:10.313Z,100418.53
2023-05-05T13:17:37.213Z,100414.75
2023-05-05T13:20:07.223Z,100409.38
2023-05-05T13:22:37.323Z,100409.91
2023-05-05T13:25:04.510Z,100400.25
2023-05-05T13:27:37.245Z,100396.47
2023-05-05T13:30:09.115Z,100394.59
2023-05-05T13:32:39.014Z,100390.00
2023-05-05T13:35:06.094Z,100383.56
2023-05-05T13:37:36.250Z,100380.88
2023-05-05T13:40:07.519Z,100378.19
2023-05-05T13:42:41.128Z,100372.81
2023-05-05T13:45:08.517Z,100363.69
2023-05-05T13:47:40.588Z,100370.13
2023-05-05T13:50:11.970Z,100368.53
2023-05-05T13:52:39.557Z,100363.69
2023-05-05T13:55:10.509Z,100363.69
2023-05-05T13:57:37.510Z,100365.28
2023-05-05T14:00:10.445Z,100353.75
2023-05-05T14:02:37.199Z,100358.31
2023-05-05T14:05:04.091Z,100357.50
2023-05-05T14:07:37.416Z,100357.22
2023-05-05T14:10:10.668Z,100356.94
2023-05-05T14:12:38.389Z,100355.84
2023-05-05T14:15:05.694Z,100344.28
2023-05-05T14:17:35.937Z,100347.81
2023-05-05T14:20:08.412Z,100344.88
2023-05-05T14:22:39.343Z,100347.00
2023-05-05T14:25:06.432Z,100347.50
2023-05-05T14:27:37.145Z,100343.44
2023-05-05T14:30:04.155Z,100339.41
2023-05-05T14:32:30.992Z,100335.06
2023-05-05T14:35:03.881Z,100338.25
2023-05-05T14:37:36.561Z,100335.56
2023-05-05T14:40:09.259Z,100335.31
2023-05-05T14:42:39.013Z,100329.66
2023-05-05T14:45:08.878Z,100324.78
2023-05-05T14:47:42.567Z,100325.31
2023-05-05T14:50:12.294Z,100327.44
2023-05-05T14:52:39.039Z,100325.00
2023-05-05T14:55:09.189Z,100326.34
2023-05-05T14:57:36.623Z,100324.19
2023-05-05T15:00:07.081Z,100322.28
2023-05-05T15:02:38.569Z,100331.66
2023-05-05T15:05:08.223Z,100327.91
2023-05-05T15:07:38.037Z,100333.28
2023-05-05T15:10:10.822Z,100324.91
2023-05-05T15:12:41.834Z,100325.16
2023-05-05T15:15:18.412Z,100321.66
2023-05-05T15:17:47.099Z,100325.16
2023-05-05T15:20:17.266Z,100327.53
2023-05-05T15:22:48.987Z,100321.91
2023-05-05T15:25:22.085Z,100320.56
2023-05-05T15:27:48.827Z,100324.59
2023-05-05T15:30:15.606Z,100319.47
2023-05-05T15:32:45.574Z,100320.28
2023-05-05T15:35:13.675Z,100316.00
2023-05-05T15:37:49.181Z,100316.28
2023-05-05T15:40:16.786Z,100321.94
2023-05-05T15:42:49.811Z,100316.56
2023-05-05T15:45:18.057Z,100316.56
2023-05-05T15:47:50.559Z,100314.97
2023-05-05T15:50:17.274Z,100311.78
2023-05-05T15:52:45.108Z,100317.16
2023-05-05T15:55:18.420Z,100316.62
2023-05-05T15:57:45.236Z,100309.59
2023-05-05T16:00:14.887Z,100311.97
2023-05-05T16:02:42.187Z,100302.06
2023-05-05T16:05:12.271Z,100313.03
2023-05-05T16:07:45.210Z,100306.84
2023-05-05T16:10:21.515Z,100298.19
2023-05-05T16:12:51.526Z,100297.94
2023-05-05T16:15:21.444Z,100303.53
2023-05-05T16:17:51.263Z,100297.06
2023-05-05T16:20:20.888Z,100284.44
2023-05-05T16:22:53.720Z,100293.28
2023-05-05T16:25:22.342Z,100293.00
2023-05-05T16:27:52.841Z,100293.00
2023-05-05T16:30:23.124Z,100293.00
2023-05-05T16:32:50.269Z,100300.25
2023-05-05T16:35:21.084Z,100294.87
2023-05-05T16:37:50.605Z,100290.06
2023-05-05T16:40:20.240Z,100294.37
2023-05-05T16:42:47.081Z,100287.97
2023-05-05T16:45:17.346Z,100285.84
2023-05-05T16:47:47.093Z,100292.56
2023-05-05T16:50:14.684Z,100289.03
2023-05-05T16:52:45.287Z,100286.34
2023-05-05T16:55:18.572Z,100286.34
2023-05-05T16:57:48.597Z,100282.59
2023-05-05T17:00:19.636Z,100284.19
2023-05-05T17:02:49.930Z,100279.62
2023-05-05T17:05:16.855Z,100284.69
2023-05-05T17:07:49.739Z,100284.13
2023-05-05T17:10:22.893Z,100277.66
2023-05-05T17:12:52.713Z,100280.31
2023-05-05T17:15:21.761Z,100283.25
2023-05-05T17:17:50.908Z,100284.09
2023-05-05T17:20:18.179Z,100285.13
2023-05-05T17:22:45.062Z,100286.19
2023-05-05T17:25:14.856Z,100292.34
2023-05-05T17:27:48.215Z,100288.88
2023-05-05T17:30:15.023Z,100296.44
2023-05-05T17:32:45.103Z,100287.28
2023-05-05T17:35:16.323Z,100298.59
2023-05-05T17:37:48.637Z,100297.25
2023-05-05T17:40:18.815Z,100293.22
2023-05-05T17:42:46.097Z,100298.59
2023-05-05T17:45:16.462Z,100293.53
2023-05-05T17:47:44.003Z,100293.59
2023-05-05T17:50:16.387Z,100304.53
2023-05-05T17:52:43.204Z,100300.78
2023-05-05T17:55:14.962Z,100302.38
2023-05-05T17:57:42.590Z,100305.06
2023-05-05T18:00:12.913Z,100302.38
2023-05-05T18:02:42.651Z,100303.75
2023-05-05T18:05:12.364Z,100299.75
2023-05-05T18:07:39.144Z,100302.44
2023-05-05T18:10:11.592Z,100303.53
2023-05-05T18:12:38.628Z,100308.41
2023-05-05T18:15:06.243Z,100306.00
2023-05-05T18:17:36.247Z,100297.94
2023-05-05T18:20:07.041Z,100297.63
2023-05-05T18:22:38.475Z,100302.16
2023-05-05T18:25:09.487Z,100304.53
2023-05-05T18:27:39.573Z,100302.94
2023-05-05T18:30:11.033Z,100302.69
2023-05-05T18:32:40.675Z,100305.06
2023-05-05T18:35:15.564Z,100314.75
2023-05-05T18:37:48.688Z,100316.38
2023-05-05T18:40:18.751Z,100323.34
2023-05-05T18:42:51.539Z,100322.00
2023-05-05T18:45:24.993Z,100323.91
2023-05-05T18:47:55.135Z,100327.12
2023-05-05T18:50:25.316Z,100329.28
2023-05-05T18:52:59.415Z,100329.28
2023-05-05T18:55:29.348Z,100327.69
2023-05-05T18:58:00.166Z,100323.38
2023-05-05T19:00:30.021Z,100321.28
2023-05-05T19:02:57.606Z,100328.25
2023-05-05T19:05:27.543Z,100324.81
2023-05-05T19:07:54.893Z,100332.59
2023-05-05T19:10:25.172Z,100322.63
2023-05-05T19:12:57.799Z,100329.91
2023-05-05T19:15:26.571Z,100332.59
2023-05-05T19:17:54.236Z,100334.19
2023-05-05T19:20:21.619Z,100334.19
2023-05-05T19:22:51.977Z,100333.97
2023-05-05T19:25:25.349Z,100336.13
2023-05-05T19:27:52.103Z,100336.13
2023-05-05T19:30:19.030Z,100326.19
2023-05-05T19:32:48.462Z,100334.75
2023-05-05T19:35:18.621Z,100329.91
2023-05-05T19:37:53.298Z,100329.91
2023-05-05T19:40:23.026Z,100329.09
2023-05-05T19:42:49.939Z,100336.38
2023-05-05T19:45:19.495Z,100340.12
2023-05-05T19:47:46.478Z,100332.88
2023-05-05T19:50:16.938Z,100333.72
2023-05-05T19:52:51.599Z,100336.94
2023-05-05T19:55:21.775Z,100334.25
2023-05-05T19:57:53.814Z,100335.34
2023-05-05T20:00:23.547Z,100335.34
2023-05-05T20:02:51.795Z,100336.94
2023-05-05T20:05:24.133Z,100338.84
2023-05-05T20:07:57.259Z,100336.94
2023-05-05T20:10:24.035Z,100334.81
2023-05-05T20:12:53.806Z,100333.72
2023-05-05T20:15:25.365Z,100331.03
2023-05-05T20:17:55.356Z,100335.34
2023-05-05T20:20:22.720Z,100331.84
2023-05-05T20:22:50.310Z,100322.16
2023-05-05T20:25:22.690Z,100319.78
2023-05-05T20:27:49.409Z,100323.78
2023-05-05T20:30:16.702Z,100320.81
2023-05-05T20:32:49.236Z,100318.97
2023-05-05T20:35:16.572Z,100322.47
2023-05-05T20:37:49.615Z,100316.56
2023-05-05T20:40:20.797Z,100319.53
2023-05-05T20:42:53.776Z,100314.97
2023-05-05T20:45:24.342Z,100317.16
2023-05-05T20:47:54.098Z,100302.09
2023-05-05T20:50:24.125Z,100308.56
2023-05-05T20:52:53.799Z,100308.06
2023-05-05T20:55:22.025Z,100307.75
2023-05-05T20:57:49.230Z,100310.75
2023-05-05T21:00:16.125Z,100308.31
2023-05-05T21:02:45.628Z,100301.06
2023-05-05T21:05:12.643Z,100300.56
2023-05-05T21:07:41.081Z,100295.16
2023-05-05T21:10:08.296Z,100297.87
2023-05-05T21:12:35.420Z,100298.94
2023-05-05T21:15:05.184Z,100292.75
2023-05-05T21:17:31.945Z,100298.94
2023-05-05T21:19:59.918Z,100301.13
2023-05-05T21:22:26.635Z,100304.91
2023-05-05T21:24:54.104Z,100306.50
2023-05-05T21:27:21.026Z,100309.19
2023-05-05T21:29:52.572Z,100303.81
2023-05-05T21:32:22.527Z,100305.69
2023-05-05T21:34:51.088Z,100308.66
2023-05-05T21:37:20.876Z,100312.44
2023-05-05T21:39:50.826Z,100310.25
2023-05-05T21:42:20.139Z,100310.81
2023-05-05T21:44:51.806Z,100312.44
2023-05-05T21:47:22.053Z,100301.66
2023-05-05T21:49:51.700Z,100301.16
2023-05-05T21:52:24.439Z,100300.06
2023-05-05T21:54:56.878Z,100296.84
2023-05-05T21:57:23.690Z,100306.53
2023-05-05T21:59:53.645Z,100302.22
2023-05-05T22:02:23.946Z,100307.59
2023-05-05T22:04:54.575Z,100304.91
2023-05-05T22:07:28.269Z,100300.06
2023-05-05T22:09:55.025Z,100309.78
2023-05-05T22:12:25.070Z,100299.84
2023-05-05T22:14:54.754Z,100305.22
2023-05-05T22:17:26.585Z,100306.00
2023-05-05T22:19:57.008Z,100302.81
2023-05-05T22:22:29.790Z,100303.31
2023-05-05T22:24:56.969Z,100292.06
2023-05-05T22:27:24.624Z,100295.56
2023-05-05T22:29:51.482Z,100293.66
2023-05-05T22:32:18.252Z,100296.41
2023-05-05T22:34:51.133Z,100299.59
2023-05-05T22:37:18.222Z,100304.19
2023-05-05T22:39:47.508Z,100295.81
2023-05-05T22:42:17.412Z,100295.81
2023-05-05T22:44:44.615Z,100293.44
2023-05-05T22:47:14.788Z,100300.69
2023-05-05T22:49:41.778Z,100299.59
2023-05-05T22:52:14.846Z,100299.09
2023-05-05T22:54:45.089Z,100298.00
2023-05-05T22:57:13.445Z,100299.91
2023-05-05T22:59:43.976Z,100305.53
2023-05-05T23:02:14.226Z,100303.66
2023-05-05T23:04:47.561Z,100307.97
2023-05-05T23:07:18.238Z,100303.94
2023-05-05T23:09:45.013Z,100302.34
2023-05-05T23:12:13.797Z,100307.72
2023-05-05T23:14:41.508Z,100298.56
2023-05-05T23:17:14.146Z,100305.53
2023-05-05T23:19:40.835Z,100298.56
2023-05-05T23:22:08.459Z,100307.72
2023-05-05T23:24:35.252Z,100307.72
2023-05-05T23:27:02.089Z,100299.66
2023-05-05T23:29:33.769Z,100292.41
2023-05-05T23:32:03.237Z,100299.38
2023-05-05T23:34:33.052Z,100284.34
2023-05-05T23:36:59.809Z,100283.81
2023-05-05T23:39:29.722Z,100277.13
2023-05-05T23:41:57.145Z,100269.56
2023-05-05T23:44:26.064Z,100282.22
2023-05-05T23:46:55.945Z,100272.81
2023-05-05T23:49:25.720Z,100270.66
2023-05-05T23:51:58.732Z,100275.25
2023-05-05T23:54:32.099Z,100274.44
2023-05-05T23:57:01.775Z,100274.44
2023-05-05T23:59:34.999Z,100271.75
